createdAt,value
2023-05-23T00:02:13.131Z,19.00
2023-05-23T00:05:12.520Z,17.00
2023-05-23T00:08:22.048Z,17.90
2023-05-23T00:11:32.895Z,16.70
2023-05-23T00:18:22.306Z,22.90
2023-05-23T00:21:24.005Z,14.00
2023-05-23T00:24:50.827Z,18.30
2023-05-23T00:27:55.007Z,15.40
2023-05-23T00:30:37.499Z,18.00
2023-05-23T00:33:45.358Z,21.50
2023-05-23T00:39:42.606Z,28.40
2023-05-23T00:42:41.421Z,29.10
2023-05-23T00:45:32.843Z,26.80
2023-05-23T00:48:24.774Z,24.10
2023-05-23T00:51:09.042Z,22.80
2023-05-23T00:57:12.483Z,23.30
2023-05-23T01:03:28.317Z,23.90
2023-05-23T01:06:44.022Z,25.60
2023-05-23T01:09:43.526Z,22.40
2023-05-23T01:13:25.806Z,24.70
2023-05-23T01:17:05.288Z,26.30
2023-05-23T01:20:19.009Z,22.30
2023-05-23T01:24:01.146Z,22.30
2023-05-23T01:27:19.207Z,24.60
2023-05-23T01:30:41.330Z,20.90
2023-05-23T01:33:30.137Z,20.60
2023-05-23T01:36:36.704Z,21.50
2023-05-23T01:39:24.451Z,23.40
2023-05-23T01:45:47.438Z,19.10
2023-05-23T01:49:16.173Z,21.60
2023-05-23T01:52:00.751Z,21.70
2023-05-23T01:54:44.638Z,22.10
2023-05-23T01:57:36.137Z,23.00
2023-05-23T02:00:18.852Z,23.00
2023-05-23T02:02:54.798Z,28.20
2023-05-23T02:05:33.274Z,21.00
2023-05-23T02:08:34.691Z,21.40
2023-05-23T02:11:50.396Z,19.00
2023-05-23T02:14:33.994Z,19.90
2023-05-23T02:19:51.781Z,24.00
2023-05-23T02:22:40.729Z,25.70
2023-05-23T02:25:25.145Z,20.70
2023-05-23T02:28:33.168Z,22.90
2023-05-23T02:31:16.661Z,21.60
2023-05-23T02:34:00.605Z,24.20
2023-05-23T02:36:57.163Z,23.20
2023-05-23T02:39:37.014Z,26.40
2023-05-23T02:42:11.426Z,25.70
2023-05-23T02:45:01.829Z,24.60
2023-05-23T02:47:45.771Z,25.00
2023-05-23T02:50:23.035Z,24.80
2023-05-23T02:53:20.625Z,24.80
2023-05-23T02:55:59.559Z,24.90
2023-05-23T03:01:46.823Z,26.00
2023-05-23T03:04:57.687Z,24.00
2023-05-23T03:08:22.349Z,26.30
2023-05-23T03:10:58.812Z,24.30
2023-05-23T03:13:54.038Z,26.30
2023-05-23T03:16:57.988Z,26.40
2023-05-23T03:20:05.518Z,24.70
2023-05-23T03:22:58.515Z,30.40
2023-05-23T03:25:34.377Z,24.80
2023-05-23T03:28:48.453Z,25.50
2023-05-23T03:31:52.042Z,32.10
2023-05-23T03:34:41.589Z,24.90
2023-05-23T03:37:18.603Z,26.50
2023-05-23T03:40:05.165Z,29.60
2023-05-23T03:43:17.432Z,26.50
2023-05-23T03:46:14.484Z,26.60
2023-05-23T03:48:57.448Z,27.70
2023-05-23T03:51:43.383Z,24.10
2023-05-23T03:57:21.057Z,22.90
2023-05-23T04:00:23.950Z,24.20
2023-05-23T04:03:17.650Z,23.70
2023-05-23T04:06:06.421Z,25.10
2023-05-23T04:08:57.081Z,22.50
2023-05-23T04:11:44.096Z,23.90
2023-05-23T04:14:35.404Z,23.50
2023-05-23T04:17:46.648Z,21.50
2023-05-23T04:20:42.944Z,23.40
2023-05-23T04:23:23.922Z,23.20
2023-05-23T04:26:10.859Z,20.90
2023-05-23T04:28:59.788Z,18.90
2023-05-23T04:32:18.062Z,19.60
2023-05-23T04:35:00.480Z,16.90
2023-05-23T04:37:53.179Z,14.60
2023-05-23T04:40:43.460Z,15.40
2023-05-23T04:44:16.153Z,14.30
2023-05-23T04:47:16.672Z,20.60
2023-05-23T04:50:18.336Z,16.30
2023-05-23T04:52:54.597Z,12.60
2023-05-23T04:55:37.171Z,16.30
2023-05-23T04:58:24.126Z,15.60
2023-05-23T05:01:24.524Z,12.40
2023-05-23T05:04:16.445Z,11.50
2023-05-23T05:06:55.286Z,12.10
2023-05-23T05:09:39.330Z,14.40
2023-05-23T05:12:09.860Z,16.20
2023-05-23T05:14:50.590Z,14.90
2023-05-23T05:17:26.574Z,12.50
2023-05-23T05:20:19.208Z,14.20
2023-05-23T05:23:23.716Z,11.00
2023-05-23T05:26:14.011Z,9.40
2023-05-23T05:28:51.506Z,10.20
2023-05-23T05:31:27.170Z,12.40
2023-05-23T05:37:37.510Z,13.60
2023-05-23T05:40:23.130Z,9.00
2023-05-23T05:43:04.067Z,9.90
2023-05-23T05:48:43.215Z,9.30
2023-05-23T05:51:26.637Z,9.60
2023-05-23T05:54:19.795Z,17.60
2023-05-23T05:57:00.150Z,9.10
2023-05-23T06:00:01.424Z,8.50
2023-05-23T06:02:49.424Z,15.40
2023-05-23T06:05:39.533Z,8.80
2023-05-23T06:08:18.025Z,9.40
2023-05-23T06:11:32.498Z,10.90
2023-05-23T06:14:22.076Z,10.00
2023-05-23T06:17:17.469Z,11.80
2023-05-23T06:20:12.133Z,10.10
2023-05-23T06:23:07.199Z,8.20
2023-05-23T06:25:42.174Z,14.30
2023-05-23T06:28:36.500Z,12.50
2023-05-23T06:31:06.542Z,9.50
2023-05-23T06:36:40.064Z,11.30
2023-05-23T06:39:21.397Z,8.00
2023-05-23T06:42:40.919Z,7.20
2023-05-23T06:45:23.423Z,13.40
2023-05-23T06:48:03.764Z,5.70
2023-05-23T06:50:49.671Z,9.30
2023-05-23T06:53:20.083Z,11.50
2023-05-23T06:56:02.168Z,7.20
2023-05-23T06:58:41.769Z,6.70
2023-05-23T07:01:25.459Z,6.80
2023-05-23T07:03:56.565Z,6.10
2023-05-23T07:06:36.748Z,11.00
2023-05-23T07:09:11.859Z,7.20
2023-05-23T07:11:47.882Z,6.70
2023-05-23T07:14:27.699Z,5.20
2023-05-23T07:17:18.631Z,12.50
2023-05-23T07:19:59.740Z,7.10
2023-05-23T07:22:41.752Z,6.60
2023-05-23T07:25:23.048Z,8.20
2023-05-23T07:27:57.436Z,9.90
2023-05-23T07:30:47.125Z,7.60
2023-05-23T07:33:23.005Z,8.40
2023-05-23T07:35:56.734Z,9.00
2023-05-23T07:38:44.777Z,6.50
2023-05-23T07:41:25.727Z,8.30
2023-05-23T07:43:56.408Z,7.00
2023-05-23T07:46:35.517Z,11.30
2023-05-23T07:49:13.961Z,8.50
2023-05-23T07:52:04.987Z,6.30
2023-05-23T07:54:44.964Z,8.20
2023-05-23T07:57:19.287Z,6.50
2023-05-23T07:59:53.977Z,5.90
2023-05-23T08:02:34.680Z,6.10
2023-05-23T08:05:13.322Z,5.20
2023-05-23T08:08:04.402Z,9.40
2023-05-23T08:10:44.214Z,7.40
2023-05-23T08:13:18.344Z,8.10
2023-05-23T08:19:16.301Z,5.40
2023-05-23T08:21:59.063Z,6.20
2023-05-23T08:24:36.010Z,10.10
2023-05-23T08:27:15.447Z,6.70
2023-05-23T08:29:50.256Z,5.90
2023-05-23T08:32:22.369Z,4.60
2023-05-23T08:34:52.770Z,7.20
2023-05-23T08:37:31.046Z,13.10
2023-05-23T08:40:23.426Z,5.70
2023-05-23T08:43:23.730Z,5.80
2023-05-23T08:46:01.961Z,7.10
2023-05-23T08:48:44.765Z,10.10
2023-05-23T08:51:25.388Z,7.10
2023-05-23T08:54:24.961Z,7.90
2023-05-23T08:57:30.675Z,8.40
2023-05-23T09:00:17.803Z,16.90
2023-05-23T09:02:49.626Z,7.40
2023-05-23T09:05:50.932Z,15.50
2023-05-23T09:08:31.374Z,7.10
2023-05-23T09:11:13.041Z,11.70
2023-05-23T09:14:32.552Z,8.90
2023-05-23T09:17:36.681Z,11.10
2023-05-23T09:20:16.947Z,8.10
2023-05-23T09:23:11.766Z,7.90
2023-05-23T09:26:00.634Z,6.20
2023-05-23T09:31:25.104Z,5.40
2023-05-23T09:34:06.583Z,10.00
2023-05-23T09:37:09.768Z,8.30
2023-05-23T09:39:49.267Z,6.60
2023-05-23T09:42:44.029Z,11.70
2023-05-23T09:45:37.178Z,6.50
2023-05-23T09:48:15.466Z,12.70
2023-05-23T09:50:58.203Z,6.70
2023-05-23T09:53:33.679Z,7.90
2023-05-23T09:56:18.151Z,5.60
2023-05-23T09:59:35.817Z,12.90
2023-05-23T10:02:45.619Z,10.80
2023-05-23T10:06:12.859Z,11.80
2023-05-23T10:08:54.619Z,10.00
2023-05-23T10:11:36.065Z,5.40
2023-05-23T10:14:16.677Z,8.60
2023-05-23T10:17:06.683Z,10.40
2023-05-23T10:19:53.433Z,6.00
2023-05-23T10:22:29.554Z,9.70
2023-05-23T10:25:05.434Z,6.40
2023-05-23T10:27:56.531Z,5.80
2023-05-23T10:30:39.578Z,10.20
2023-05-23T10:33:13.930Z,6.40
2023-05-23T10:36:12.826Z,9.50
2023-05-23T10:39:25.669Z,5.60
2023-05-23T10:42:15.281Z,6.00
2023-05-23T10:44:53.158Z,7.00
2023-05-23T10:47:33.928Z,8.90
2023-05-23T10:50:22.009Z,8.20
2023-05-23T10:53:00.071Z,7.50
2023-05-23T10:55:43.056Z,13.20
2023-05-23T10:58:25.763Z,6.50
2023-05-23T11:01:13.607Z,8.10
2023-05-23T11:03:52.917Z,6.60
2023-05-23T11:06:49.930Z,10.60
2023-05-23T11:09:26.324Z,10.10
2023-05-23T11:12:09.462Z,7.90
2023-05-23T11:14:52.493Z,10.40
2023-05-23T11:17:53.324Z,16.10
2023-05-23T11:20:33.422Z,6.90
2023-05-23T11:23:24.782Z,8.50
2023-05-23T11:25:56.748Z,7.70
2023-05-23T11:29:00.518Z,8.30
2023-05-23T11:31:44.422Z,10.60
2023-05-23T11:34:31.707Z,12.10
2023-05-23T11:37:11.786Z,9.00
2023-05-23T11:39:56.703Z,16.80
2023-05-23T11:42:30.621Z,7.70
2023-05-23T11:45:12.492Z,11.20
2023-05-23T11:48:06.466Z,6.80
2023-05-23T11:51:19.750Z,10.10
2023-05-23T11:54:04.323Z,10.20
2023-05-23T11:56:40.758Z,7.70
2023-05-23T11:59:16.323Z,8.70
2023-05-23T12:01:58.346Z,8.20
2023-05-23T12:04:42.256Z,9.90
2023-05-23T12:07:34.045Z,7.30
2023-05-23T12:10:19.899Z,11.60
2023-05-23T12:12:53.662Z,6.00
2023-05-23T12:15:36.602Z,11.30
2023-05-23T12:18:09.127Z,8.00
2023-05-23T12:20:42.385Z,8.20
2023-05-23T12:23:33.056Z,9.30
2023-05-23T12:26:10.408Z,16.70
2023-05-23T12:28:54.809Z,8.20
2023-05-23T12:31:26.244Z,13.70
2023-05-23T12:33:59.709Z,8.80
2023-05-23T12:37:19.728Z,10.80
2023-05-23T12:39:52.704Z,5.20
2023-05-23T12:42:22.704Z,5.80
2023-05-23T12:44:54.471Z,6.40
2023-05-23T12:47:30.154Z,8.20
2023-05-23T12:50:00.072Z,8.50
2023-05-23T12:52:45.423Z,7.00
2023-05-23T12:55:16.951Z,15.60
2023-05-23T12:57:55.686Z,8.50
2023-05-23T13:00:26.920Z,6.80
2023-05-23T13:02:56.960Z,10.20
2023-05-23T13:05:27.554Z,8.00
2023-05-23T13:08:01.904Z,10.00
2023-05-23T13:10:37.219Z,9.90
2023-05-23T13:13:11.225Z,13.00
2023-05-23T13:15:43.234Z,9.10
2023-05-23T13:19:37.584Z,11.10
2023-05-23T13:25:30.133Z,11.30
2023-05-23T13:28:01.313Z,7.10
2023-05-23T13:30:45.821Z,12.20
2023-05-23T13:33:22.281Z,10.80
2023-05-23T13:35:52.661Z,10.60
2023-05-23T13:38:26.048Z,7.90
2023-05-23T13:40:56.231Z,12.40
2023-05-23T13:43:28.342Z,17.90
2023-05-23T13:46:02.876Z,13.60
2023-05-23T13:48:34.593Z,9.50
2023-05-23T13:51:04.005Z,18.80
2023-05-23T13:53:33.913Z,14.00
2023-05-23T13:56:06.309Z,13.50
2023-05-23T13:58:35.316Z,11.60
2023-05-23T14:01:04.696Z,14.00
2023-05-23T14:04:07.900Z,9.30
2023-05-23T14:07:21.099Z,7.50
2023-05-23T14:10:21.736Z,10.90
2023-05-23T14:12:54.213Z,8.60
2023-05-23T14:15:24.722Z,6.20
2023-05-23T14:17:58.606Z,6.80
2023-05-23T14:20:29.267Z,7.30
2023-05-23T14:23:10.786Z,8.60
2023-05-23T14:25:44.889Z,12.80
2023-05-23T14:30:49.722Z,9.90
2023-05-23T14:33:19.985Z,7.20
2023-05-23T14:35:50.882Z,11.40
2023-05-23T14:41:23.073Z,9.70
2023-05-23T14:44:00.217Z,8.40
2023-05-23T14:46:37.717Z,10.90
2023-05-23T14:49:29.948Z,9.40
2023-05-23T14:52:00.201Z,8.10
2023-05-23T14:57:49.349Z,8.20
2023-05-23T15:00:26.027Z,9.50
2023-05-23T15:03:10.663Z,12.20
2023-05-23T15:05:49.023Z,8.90
2023-05-23T15:08:45.025Z,11.30
2023-05-23T15:11:32.961Z,8.90
2023-05-23T15:14:10.466Z,9.90
2023-05-23T15:16:44.658Z,7.10
2023-05-23T15:19:36.553Z,8.40
2023-05-23T15:22:11.175Z,10.50
2023-05-23T15:24:47.441Z,7.10
2023-05-23T15:27:22.305Z,10.70
2023-05-23T15:29:55.454Z,9.40
2023-05-23T15:33:48.794Z,8.40
2023-05-23T15:39:50.243Z,8.40
2023-05-23T15:42:36.764Z,7.70
2023-05-23T15:45:42.774Z,7.80
2023-05-23T15:48:53.569Z,8.20
2023-05-23T15:51:34.280Z,15.60
2023-05-23T15:54:11.877Z,16.80
2023-05-23T15:57:04.608Z,12.20
2023-05-23T15:59:43.780Z,7.90
2023-05-23T16:02:42.953Z,10.00
2023-05-23T16:05:28.183Z,9.60
2023-05-23T16:08:06.359Z,7.50
2023-05-23T16:10:51.648Z,9.70
2023-05-23T16:13:41.177Z,7.70
2023-05-23T16:16:22.183Z,8.40
2023-05-23T16:19:01.130Z,10.50
2023-05-23T16:21:44.137Z,15.40
2023-05-23T16:24:40.096Z,10.30
2023-05-23T16:27:14.144Z,15.20
2023-05-23T16:29:48.981Z,8.60
2023-05-23T16:33:05.270Z,12.30
2023-05-23T16:35:50.197Z,13.90
2023-05-23T16:38:35.844Z,16.20
2023-05-23T16:41:13.449Z,9.90
2023-05-23T16:44:42.480Z,8.90
2023-05-23T16:47:27.354Z,12.60
2023-05-23T16:50:16.590Z,23.10
2023-05-23T16:53:15.141Z,14.20
2023-05-23T16:56:31.337Z,8.90
2023-05-23T16:59:17.713Z,8.20
2023-05-23T17:02:12.371Z,8.10
2023-05-23T17:05:00.111Z,10.20
2023-05-23T17:08:00.510Z,8.80
2023-05-23T17:11:07.865Z,9.20
2023-05-23T17:14:45.361Z,12.30
2023-05-23T17:17:26.451Z,12.10
2023-05-23T17:20:09.488Z,12.70
2023-05-23T17:23:07.584Z,15.10
2023-05-23T17:26:07.936Z,9.70
2023-05-23T17:29:02.958Z,9.50
2023-05-23T17:32:05.957Z,12.70
2023-05-23T17:34:59.844Z,13.30
2023-05-23T17:37:45.324Z,13.60
2023-05-23T17:40:42.130Z,15.80
2023-05-23T17:47:40.048Z,21.20
2023-05-23T17:50:41.607Z,13.80
2023-05-23T17:56:58.728Z,14.50
2023-05-23T17:59:45.206Z,19.90
2023-05-23T18:03:40.315Z,13.60
2023-05-23T18:06:37.195Z,13.20
2023-05-23T18:09:28.049Z,14.00
2023-05-23T18:12:56.769Z,16.30
2023-05-23T18:16:21.207Z,14.40
2023-05-23T18:19:33.288Z,12.00
2023-05-23T18:22:52.556Z,12.90
2023-05-23T18:25:40.187Z,12.20
2023-05-23T18:28:34.685Z,16.80
2023-05-23T18:31:25.436Z,12.70
2023-05-23T18:34:40.490Z,13.80
2023-05-23T18:37:50.830Z,13.60
2023-05-23T18:41:04.267Z,14.50
2023-05-23T18:44:18.636Z,17.00
2023-05-23T18:52:09.844Z,13.80
2023-05-23T18:55:26.912Z,18.30
2023-05-23T19:01:30.512Z,17.20
2023-05-23T19:04:09.630Z,16.60
2023-05-23T19:07:08.801Z,73.00
2023-05-23T19:10:30.532Z,25.90
2023-05-23T19:13:04.329Z,18.70
2023-05-23T19:19:45.460Z,15.40
2023-05-23T19:25:50.707Z,18.10
2023-05-23T19:29:05.256Z,18.40
2023-05-23T19:32:10.086Z,18.20
2023-05-23T19:35:09.623Z,18.20
2023-05-23T19:38:28.363Z,13.80
2023-05-23T19:41:29.092Z,14.90
2023-05-23T19:44:27.267Z,16.90
2023-05-23T19:47:13.379Z,18.80
2023-05-23T19:50:09.506Z,16.90
2023-05-23T19:53:31.451Z,20.40
2023-05-23T19:56:19.757Z,20.80
2023-05-23T20:03:09.447Z,23.20
2023-05-23T20:05:51.965Z,17.70
2023-05-23T20:08:48.160Z,17.10
2023-05-23T20:11:57.441Z,18.90
2023-05-23T20:14:59.774Z,20.30
2023-05-23T20:17:52.508Z,20.50
2023-05-23T20:20:34.772Z,17.80
2023-05-23T20:23:33.954Z,18.50
2023-05-23T20:26:23.559Z,18.70
2023-05-23T20:29:50.406Z,19.60
2023-05-23T20:32:26.277Z,21.50
2023-05-23T20:43:05.006Z,25.60
2023-05-23T20:48:07.667Z,26.40
2023-05-23T21:39:50.617Z,26.10
2023-05-23T21:42:54.994Z,24.50
2023-05-23T21:52:49.804Z,24.40
2023-05-23T21:55:31.720Z,27.70
2023-05-23T22:02:33.341Z,25.80
2023-05-23T22:05:10.858Z,22.70
2023-05-23T22:08:06.009Z,25.80
2023-05-23T22:10:44.739Z,25.90
2023-05-23T22:13:19.962Z,23.50
2023-05-23T22:21:18.300Z,25.10
2023-05-23T22:24:11.033Z,27.30
2023-05-23T22:26:43.297Z,25.30
2023-05-23T22:29:27.169Z,25.60
2023-05-23T22:32:07.081Z,26.20
2023-05-23T22:34:51.713Z,25.60
2023-05-23T22:38:00.244Z,24.90
2023-05-23T22:40:34.176Z,24.60
2023-05-23T22:43:17.740Z,25.10
2023-05-23T22:45:59.794Z,26.10
2023-05-23T22:48:54.279Z,24.80
2023-05-23T22:51:34.238Z,30.90
2023-05-23T22:54:04.399Z,24.80
2023-05-23T22:56:38.502Z,24.00
2023-05-23T22:59:33.383Z,24.00
2023-05-23T23:02:06.366Z,23.90
2023-05-23T23:04:41.793Z,22.70
2023-05-23T23:07:26.660Z,26.60
2023-05-23T23:09:59.249Z,24.80
2023-05-23T23:12:32.105Z,23.70
2023-05-23T23:15:02.536Z,25.10
2023-05-23T23:18:18.873Z,24.80
2023-05-23T23:21:05.763Z,22.40
2023-05-23T23:23:47.665Z,23.90
2023-05-23T23:26:32.519Z,23.30
2023-05-23T23:29:16.984Z,28.30
2023-05-23T23:31:55.700Z,24.90
2023-05-23T23:34:27.651Z,24.50
2023-05-23T23:36:57.568Z,24.00
2023-05-23T23:39:26.988Z,26.10
2023-05-23T23:41:56.573Z,24.70
2023-05-23T23:44:29.663Z,26.10
2023-05-23T23:47:10.887Z,26.10
2023-05-23T23:49:40.445Z,26.60
2023-05-23T23:52:12.742Z,25.10
2023-05-23T23:54:43.265Z,25.10
2023-05-23T23:57:17.392Z,24.80
2023-05-23T23:59:53.835Z,27.60
